Time;durP1;ratioP1;P1;durP2;ratioP2;P2;SDS_P1;SDS_P2;PMS_P1;PMS_P2;Temp;Humidity;BMP_temperature;BMP_pressure;BME280_temperature;BME280_humidity;BME280_pressure;Samples;Min_cycle;Max_cycle;Signal;HPM_P1;HPM_P2
2022/11/07 00:00:06;;;;;;;3.25;0.93;;;23.60;59.40;;;;;;4045004;29;20043;-44
2022/11/07 00:02:29;;;;;;;3.75;0.82;;;23.60;59.40;;;;;;4050840;29;20461;-48
2022/11/07 00:04:51;;;;;;;12.65;1.23;;;23.60;59.20;;;;;;4047000;29;20040;-50
2022/11/07 00:07:14;;;;;;;1.95;0.90;;;23.70;59.30;;;;;;4052785;29;20044;-50
2022/11/07 00:09:37;;;;;;;4.88;1.00;;;23.70;59.40;;;;;;4046201;29;20056;-47
2022/11/07 00:11:59;;;;;;;2.47;0.88;;;23.70;59.60;;;;;;4049645;29;20046;-48
2022/11/07 00:14:22;;;;;;;12.38;1.67;;;23.70;59.60;;;;;;4049771;29;20358;-48
2022/11/07 00:16:47;;;;;;;10.50;1.23;;;23.70;59.80;;;;;;4053491;29;20130;-46
2022/11/07 00:19:11;;;;;;;7.15;1.58;;;23.70;59.70;;;;;;4051957;29;20563;-50
2022/11/07 00:21:33;;;;;;;;;;;23.70;59.70;;;;;;4053639;29;20160;-48
2022/11/07 00:23:55;;;;;;;6.10;0.93;;;23.80;59.70;;;;;;4052593;28;19915;-49
2022/11/07 00:26:18;;;;;;;5.63;1.10;;;23.80;59.70;;;;;;4054311;29;20044;-47
2022/11/07 00:28:43;;;;;;;4.47;1.00;;;23.80;59.50;;;;;;4049949;29;20678;-49
2022/11/07 00:31:07;;;;;;;2.17;0.70;;;23.80;59.40;;;;;;4053626;29;20481;-51
2022/11/07 00:33:29;;;;;;;2.90;0.93;;;23.80;59.40;;;;;;4052374;29;20046;-44
2022/11/07 00:35:52;;;;;;;1.90;0.85;;;23.80;59.50;;;;;;4053946;29;20035;-44
2022/11/07 00:38:14;;;;;;;3.28;0.60;;;23.80;59.40;;;;;;4053754;29;20569;-46
2022/11/07 00:40:37;;;;;;;2.45;0.60;;;23.90;59.30;;;;;;4053181;29;20036;-45
2022/11/07 00:42:59;;;;;;;2.67;0.63;;;23.90;59.20;;;;;;4052321;29;20788;-46
2022/11/07 00:45:22;;;;;;;2.38;0.70;;;23.90;59.20;;;;;;4051930;29;20040;-47
2022/11/07 00:47:44;;;;;;;1.30;0.70;;;23.90;59.20;;;;;;4051340;29;20405;-52
2022/11/07 00:50:08;;;;;;;1.13;0.50;;;24.00;59.20;;;;;;4052371;29;20412;-47
2022/11/07 00:52:30;;;;;;;0.40;0.40;;;24.00;59.10;;;;;;4053627;29;20479;-46
2022/11/07 00:54:53;;;;;;;2.85;0.70;;;24.00;59.10;;;;;;4052335;29;20515;-46
2022/11/07 00:57:15;;;;;;;2.42;0.65;;;24.00;59.20;;;;;;4051617;29;20047;-49
2022/11/07 00:59:38;;;;;;;2.38;0.57;;;24.10;59.10;;;;;;4049390;29;20071;-46
2022/11/07 01:02:01;;;;;;;1.55;0.55;;;24.10;59.10;;;;;;4052136;29;20055;-47
2022/11/07 01:07:05;;;;;;;1.52;0.35;;;24.10;59.40;;;;;;4047365;29;20464;-47
2022/11/07 01:09:28;;;;;;;5.28;0.75;;;24.20;59.40;;;;;;4048382;29;20350;-47
2022/11/07 01:11:50;;;;;;;5.68;0.70;;;24.20;59.60;;;;;;4045804;29;20100;-47
2022/11/07 01:14:15;;;;;;;1.35;0.45;;;24.20;59.50;;;;;;4046626;29;20074;-47
2022/11/07 01:16:38;;;;;;;1.05;0.40;;;24.30;59.40;;;;;;4049622;29;20070;-48
2022/11/07 01:19:03;;;;;;;2.87;0.73;;;24.30;59.40;;;;;;4047343;29;20040;-50
2022/11/07 01:21:26;;;;;;;1.48;0.68;;;24.30;59.30;;;;;;4048144;29;20123;-47
2022/11/07 01:23:49;;;;;;;3.70;0.82;;;24.40;59.30;;;;;;4046306;29;20061;-48
2022/11/07 01:26:13;;;;;;;2.75;0.60;;;24.40;59.20;;;;;;4048814;29;20040;-51
2022/11/07 01:28:37;;;;;;;1.60;0.50;;;24.50;59.10;;;;;;4047437;29;20600;-45
2022/11/07 01:31:03;;;;;;;1.13;0.43;;;24.50;59.10;;;;;;4047782;29;20555;-52
2022/11/07 01:33:26;;;;;;;2.47;0.70;;;24.50;59.10;;;;;;4046577;29;20090;-46
2022/11/07 01:35:48;;;;;;;3.25;0.60;;;24.60;59.00;;;;;;4048067;29;20162;-46
2022/11/07 01:38:11;;;;;;;1.95;0.40;;;24.60;58.90;;;;;;4047077;29;20047;-46
2022/11/07 01:41:19;;;;;;;0.82;0.52;;;24.60;59.00;;;;;;4047689;29;20411;-49
2022/11/07 01:43:16;;;;;;;1.75;0.60;;;24.60;59.10;;;;;;4043685;29;20060;-48
2022/11/07 01:45:38;;;;;;;4.22;0.70;;;24.70;59.20;;;;;;4040552;29;20048;-48
2022/11/07 01:48:02;;;;;;;3.03;1.02;;;24.80;59.10;;;;;;4043566;29;20044;-47
2022/11/07 01:50:26;;;;;;;3.28;0.93;;;24.80;58.90;;;;;;4046670;29;20052;-48
2022/11/07 01:52:50;;;;;;;2.28;0.45;;;24.90;58.80;;;;;;4052450;29;20036;-46
2022/11/07 01:55:29;;;;;;;1.83;0.68;;;24.90;58.80;;;;;;4047602;29;20036;-49
2022/11/07 01:57:54;;;;;;;5.80;1.20;;;24.90;58.50;;;;;;4052762;29;20040;-50
2022/11/07 02:00:20;;;;;;;1.50;0.80;;;24.90;58.20;;;;;;4051776;29;20055;-54
2022/11/07 02:02:46;;;;;;;1.63;0.50;;;24.90;57.90;;;;;;4053356;29;20115;-47
2022/11/07 02:05:12;;;;;;;2.55;0.82;;;25.00;57.80;;;;;;4050085;29;20987;-46
2022/11/07 02:07:37;;;;;;;4.82;0.73;;;25.00;58.10;;;;;;4051260;29;20548;-51
2022/11/07 02:10:00;;;;;;;4.53;1.27;;;25.10;57.80;;;;;;4049346;29;20504;-46
2022/11/07 02:12:25;;;;;;;1.60;0.63;;;25.10;57.70;;;;;;4049526;29;20036;-50
2022/11/07 02:14:47;;;;;;;2.53;0.60;;;25.10;58.00;;;;;;4051293;29;20051;-47
2022/11/07 02:17:12;;;;;;;2.00;0.50;;;25.10;57.80;;;;;;4051142;29;20130;-45
2022/11/07 02:19:51;;;;;;;6.20;0.90;;;25.10;57.70;;;;;;4051252;29;20055;-45
2022/11/07 02:22:35;;;;;;;8.63;1.00;;;25.10;58.40;;;;;;4051314;29;20461;-46
2022/11/07 02:25:02;;;;;;;5.13;1.27;;;25.20;58.50;;;;;;4049784;29;20500;-46
2022/11/07 02:27:27;;;;;;;8.43;1.08;;;25.30;58.50;;;;;;4050023;29;20409;-47
2022/11/07 02:30:00;;;;;;;3.03;0.88;;;25.30;58.40;;;;;;4055972;29;20507;-44
2022/11/07 02:32:23;;;;;;;2.33;0.88;;;25.40;58.40;;;;;;4047176;29;20044;-46
2022/11/07 02:34:55;;;;;;;1.90;0.60;;;25.40;58.30;;;;;;4049696;29;20518;-47
2022/11/07 02:37:29;;;;;;;4.55;0.70;;;25.50;58.20;;;;;;4050437;29;20124;-44
2022/11/07 02:39:52;;;;;;;1.92;0.65;;;25.50;58.20;;;;;;4051080;29;20453;-45
2022/11/07 02:42:15;;;;;;;3.22;0.70;;;25.60;58.10;;;;;;4051015;29;20044;-47
2022/11/07 02:44:38;;;;;;;1.05;0.60;;;25.60;58.10;;;;;;4055882;29;20420;-44
2022/11/07 02:47:00;;;;;;;2.17;0.50;;;25.60;58.00;;;;;;4054853;29;20040;-44
2022/11/07 02:49:23;;;;;;;3.15;0.93;;;25.70;58.10;;;;;;4056049;29;20220;-46
2022/11/07 02:51:45;;;;;;;1.30;0.60;;;25.70;58.00;;;;;;4055535;29;20451;-43
2022/11/07 02:54:08;;;;;;;1.95;0.57;;;25.70;57.90;;;;;;4055388;29;20040;-46
2022/11/07 02:56:31;;;;;;;2.67;0.50;;;25.80;58.00;;;;;;4053381;29;20424;-47
2022/11/07 02:58:53;;;;;;;1.05;0.50;;;25.80;58.10;;;;;;4051859;29;20067;-47
2022/11/07 03:01:16;;;;;;;3.15;0.70;;;25.90;58.00;;;;;;4053346;29;20040;-47
2022/11/07 03:03:44;;;;;;;3.17;0.57;;;25.90;58.00;;;;;;4050764;29;20036;-51
2022/11/07 03:06:08;;;;;;;2.53;0.40;;;25.90;58.00;;;;;;4053177;29;20500;-50
2022/11/07 03:08:31;;;;;;;1.90;0.40;;;25.90;57.90;;;;;;4051653;29;20044;-50
2022/11/07 03:10:54;;;;;;;1.48;0.60;;;25.90;58.00;;;;;;4049738;29;20060;-48
2022/11/07 03:13:16;;;;;;;4.28;0.50;;;25.90;58.10;;;;;;4049355;29;20141;-47
2022/11/07 03:15:39;;;;;;;0.88;0.47;;;25.90;58.00;;;;;;4052416;29;20436;-46
2022/11/07 03:18:01;;;;;;;1.48;0.63;;;26.00;58.00;;;;;;4045321;29;20075;-45
2022/11/07 03:20:24;;;;;;;1.30;0.32;;;26.00;57.90;;;;;;4045307;29;20100;-49
2022/11/07 03:22:47;;;;;;;1.35;0.52;;;26.00;57.80;;;;;;4053170;29;20409;-48
2022/11/07 03:25:09;;;;;;;1.53;0.60;;;26.10;57.90;;;;;;4056343;29;20892;-47
2022/11/07 03:27:32;;;;;;;2.70;0.63;;;26.00;57.80;;;;;;4050135;29;20051;-46
2022/11/07 03:29:54;;;;;;;1.27;0.60;;;26.10;57.80;;;;;;4055202;29;20079;-50
2022/11/07 03:32:17;;;;;;;0.57;0.32;;;26.10;57.80;;;;;;4051843;29;20120;-49
2022/11/07 03:34:40;;;;;;;5.80;0.60;;;26.10;57.70;;;;;;4054236;29;20043;-52
2022/11/07 03:37:02;;;;;;;2.97;0.40;;;26.10;57.60;;;;;;4060027;29;20043;-50
2022/11/07 03:39:25;;;;;;;0.82;0.47;;;26.20;57.70;;;;;;4052165;29;20029;-49
2022/11/07 03:41:47;;;;;;;2.35;0.57;;;26.20;57.60;;;;;;4051887;29;20040;-49
2022/11/07 03:44:10;;;;;;;0.43;0.30;;;26.20;57.50;;;;;;4055104;29;20037;-49
2022/11/07 03:46:32;;;;;;;0.20;0.20;;;26.20;57.40;;;;;;4054320;29;20387;-53
2022/11/07 03:48:55;;;;;;;1.10;0.43;;;26.30;57.40;;;;;;4045878;29;20040;-47
2022/11/07 03:51:18;;;;;;;0.40;0.30;;;26.30;57.50;;;;;;4048242;29;20440;-51
2022/11/07 03:53:40;;;;;;;0.68;0.30;;;26.30;57.40;;;;;;4049434;29;20511;-47
2022/11/07 03:56:08;;;;;;;0.98;0.30;;;26.40;57.30;;;;;;4044706;29;20465;-45
2022/11/07 03:58:30;;;;;;;0.45;0.30;;;26.40;57.00;;;;;;4045388;29;20054;-46
2022/11/07 04:00:53;;;;;;;2.53;0.68;;;26.40;57.30;;;;;;4044158;29;20036;-46
2022/11/07 04:03:15;;;;;;;2.78;0.55;;;26.50;57.30;;;;;;4044492;29;20096;-48
2022/11/07 04:05:38;;;;;;;0.82;0.30;;;26.50;57.20;;;;;;4042737;29;20512;-47
2022/11/07 04:08:00;;;;;;;0.80;0.32;;;26.60;57.20;;;;;;4044673;29;20051;-49
2022/11/07 04:10:23;;;;;;;0.77;0.30;;;26.70;57.10;;;;;;4044994;29;20103;-46
2022/11/07 04:18:07;;;;;;;1.40;0.30;;;26.80;56.60;;;;;;4049274;29;20048;-47
2022/11/07 04:20:29;;;;;;;3.20;0.50;;;26.90;55.90;;;;;;4040534;29;20055;-48
2022/11/07 04:22:52;;;;;;;0.47;0.43;;;26.90;56.10;;;;;;4046930;29;20135;-53
2022/11/07 04:25:15;;;;;;;0.80;0.30;;;27.00;56.00;;;;;;4046734;29;20044;-46
2022/11/07 04:27:43;;;;;;;3.10;0.80;;;27.10;55.90;;;;;;4044691;29;20139;-48
2022/11/07 04:30:18;;;;;;;2.47;0.52;;;27.20;55.80;;;;;;4046018;29;20056;-46
2022/11/07 04:32:41;;;;;;;2.67;0.60;;;27.30;55.70;;;;;;4047178;29;20591;-46
2022/11/07 04:35:03;;;;;;;3.03;0.85;;;27.40;55.60;;;;;;4046672;29;20519;-51
2022/11/07 04:37:26;;;;;;;2.30;0.40;;;27.50;55.40;;;;;;4049986;29;20519;-48
2022/11/07 04:39:48;;;;;;;1.92;0.40;;;27.50;55.10;;;;;;4051664;29;20195;-47
2022/11/07 04:42:11;;;;;;;8.32;0.90;;;27.60;55.10;;;;;;4052295;29;20044;-48
2022/11/07 04:44:34;;;;;;;1.08;0.30;;;27.60;54.90;;;;;;4048567;29;20052;-50
2022/11/07 04:46:56;;;;;;;2.53;0.50;;;27.70;55.00;;;;;;4048712;29;20036;-48
2022/11/07 04:49:19;;;;;;;1.90;0.57;;;27.70;54.90;;;;;;4049895;29;20115;-49
2022/11/07 04:51:42;;;;;;;1.75;0.30;;;27.80;54.90;;;;;;4050856;29;20036;-47
2022/11/07 04:54:05;;;;;;;1.83;0.38;;;27.90;54.70;;;;;;4043657;29;20488;-49
2022/11/07 04:56:27;;;;;;;1.15;0.50;;;27.90;54.60;;;;;;4052232;29;20747;-49
2022/11/07 04:58:50;;;;;;;0.65;0.47;;;28.00;54.50;;;;;;4052541;29;20047;-46
2022/11/07 05:01:12;;;;;;;0.82;0.40;;;28.00;54.90;;;;;;4052680;29;20110;-47
2022/11/07 05:03:35;;;;;;;0.50;0.32;;;28.10;54.20;;;;;;4047778;29;20099;-50
2022/11/07 05:05:58;;;;;;;1.50;0.65;;;28.10;54.10;;;;;;4048441;29;20048;-49
2022/11/07 05:08:20;;;;;;;1.40;0.40;;;28.20;53.80;;;;;;4045254;29;20115;-49
2022/11/07 05:10:43;;;;;;;1.45;0.47;;;28.30;53.70;;;;;;4048816;29;20568;-48
2022/11/07 05:13:05;;;;;;;2.88;1.02;;;28.40;53.50;;;;;;4048020;29;20056;-49
2022/11/07 05:15:28;;;;;;;1.65;0.43;;;28.50;53.40;;;;;;4047639;29;20044;-51
2022/11/07 05:17:50;;;;;;;1.75;0.50;;;28.60;53.20;;;;;;4047209;29;20086;-48
2022/11/07 05:20:22;;;;;;;0.75;0.40;;;28.60;52.90;;;;;;4051217;29;20062;-48
2022/11/07 05:25:25;;;;;;;1.50;0.52;;;28.80;52.00;;;;;;4045745;29;20400;-49
2022/11/07 05:27:47;;;;;;;2.03;0.75;;;28.80;51.50;;;;;;4051859;29;20508;-49
2022/11/07 05:30:11;;;;;;;2.72;0.90;;;28.80;51.10;;;;;;4047597;29;20512;-49
2022/11/07 05:32:39;;;;;;;1.05;0.60;;;28.80;51.40;;;;;;4045826;29;20040;-50
2022/11/07 05:35:02;;;;;;;5.57;0.77;;;28.80;51.70;;;;;;4045631;29;20409;-48
2022/11/07 05:37:25;;;;;;;2.35;0.68;;;29.00;51.70;;;;;;4046809;29;20559;-53
2022/11/07 05:39:47;;;;;;;0.98;0.40;;;29.00;51.70;;;;;;4046640;29;20041;-46
2022/11/07 05:42:10;;;;;;;1.58;0.63;;;29.20;51.90;;;;;;4045464;29;20051;-47
2022/11/07 05:44:32;;;;;;;2.85;0.65;;;29.30;51.90;;;;;;4039630;29;20060;-48
2022/11/07 05:46:56;;;;;;;1.92;0.60;;;29.40;51.20;;;;;;4047853;29;20041;-49
2022/11/07 05:49:19;;;;;;;3.75;0.90;;;29.40;49.70;;;;;;4051291;29;20060;-51
2022/11/07 05:51:42;;;;;;;1.90;0.77;;;29.30;49.30;;;;;;4043044;29;20462;-52
2022/11/07 05:54:04;;;;;;;2.90;0.63;;;29.20;50.00;;;;;;4042891;29;20032;-51
2022/11/07 05:56:27;;;;;;;0.90;0.55;;;29.10;50.20;;;;;;4044404;29;20040;-55
2022/11/07 05:58:49;;;;;;;1.55;0.73;;;29.10;50.60;;;;;;4042199;29;20041;-50
2022/11/07 06:01:12;;;;;;;2.67;0.70;;;29.10;51.20;;;;;;4042873;29;20131;-51
2022/11/07 06:03:34;;;;;;;0.95;0.40;;;29.20;51.20;;;;;;4046126;29;20171;-49
2022/11/07 06:05:58;;;;;;;8.82;1.02;;;29.20;51.20;;;;;;4048946;29;20473;-51
2022/11/07 06:08:20;;;;;;;1.73;0.47;;;29.30;51.60;;;;;;4042101;29;20504;-49
2022/11/07 06:10:43;;;;;;;4.82;0.70;;;29.30;51.90;;;;;;4041814;29;20059;-56
2022/11/07 06:13:08;;;;;;;0.73;0.40;;;29.30;51.90;;;;;;4042913;29;20417;-51
2022/11/07 06:15:34;;;;;;;1.13;0.60;;;29.40;52.00;;;;;;4046501;29;20040;-50
2022/11/07 06:18:00;;;;;;;2.45;0.40;;;29.40;51.60;;;;;;4044064;29;20040;-51
2022/11/07 06:20:22;;;;;;;1.92;0.40;;;29.40;51.50;;;;;;4048007;29;20047;-58
2022/11/07 06:22:45;;;;;;;2.78;0.40;;;29.50;51.60;;;;;;4045997;29;20036;-55
2022/11/07 06:25:08;;;;;;;0.82;0.40;;;29.50;51.50;;;;;;4044279;29;20076;-53
2022/11/07 06:27:31;;;;;;;0.90;0.50;;;29.50;51.60;;;;;;4046935;29;20083;-56
2022/11/07 06:29:53;;;;;;;1.20;0.40;;;29.50;51.60;;;;;;4044833;29;20500;-57
2022/11/07 06:32:16;;;;;;;2.50;0.50;;;29.50;51.60;;;;;;4043552;29;20531;-57
2022/11/07 06:34:38;;;;;;;19.88;1.08;;;29.50;51.60;;;;;;4043308;29;20078;-58
2022/11/07 06:37:01;;;;;;;1.33;0.30;;;29.50;51.60;;;;;;4042741;29;20072;-57
2022/11/07 06:39:23;;;;;;;3.13;0.80;;;29.50;51.70;;;;;;4045471;29;20076;-58
2022/11/07 06:41:47;;;;;;;1.25;0.45;;;29.50;51.70;;;;;;4047218;29;20127;-59
2022/11/07 06:44:10;;;;;;;4.43;0.60;;;29.50;51.80;;;;;;4042222;29;20044;-62
2022/11/07 06:46:32;;;;;;;2.80;0.43;;;29.30;50.70;;;;;;4043923;29;20135;-57
2022/11/07 06:48:55;;;;;;;6.68;0.70;;;29.00;50.10;;;;;;4047041;29;20128;-56
2022/11/07 06:51:18;;;;;;;2.13;0.75;;;28.80;50.40;;;;;;4049861;29;20060;-54
2022/11/07 06:53:40;;;;;;;1.92;0.30;;;28.60;50.90;;;;;;4040699;29;20041;-51
2022/11/07 06:56:06;;;;;;;2.03;0.57;;;28.40;51.00;;;;;;4044133;29;20040;-62
2022/11/07 06:58:28;;;;;;;0.93;0.40;;;28.30;51.20;;;;;;4045583;29;20051;-58
2022/11/07 07:00:51;;;;;;;5.38;0.85;;;28.20;51.40;;;;;;4049300;29;20032;-59
2022/11/07 07:03:14;;;;;;;2.05;0.50;;;28.10;51.80;;;;;;4044303;29;20044;-58
2022/11/07 07:05:37;;;;;;;1.23;0.20;;;28.00;51.80;;;;;;4046165;29;20433;-59
2022/11/07 07:07:59;;;;;;;4.10;0.80;;;27.90;51.80;;;;;;4049028;29;20044;-59
2022/11/07 07:10:23;;;;;;;2.10;0.73;;;27.80;51.90;;;;;;4048260;29;20420;-58
2022/11/07 07:12:46;;;;;;;3.42;0.45;;;27.70;51.90;;;;;;4047398;29;20036;-59
2022/11/07 07:15:09;;;;;;;0.90;0.30;;;27.60;52.00;;;;;;4043259;29;20480;-59
2022/11/07 07:17:31;;;;;;;0.70;0.40;;;27.50;52.00;;;;;;4046471;29;20036;-58
2022/11/07 07:19:54;;;;;;;0.57;0.30;;;27.50;52.20;;;;;;4046305;29;20390;-58
2022/11/07 07:22:17;;;;;;;1.20;0.40;;;27.40;52.20;;;;;;4046003;29;20036;-58
2022/11/07 07:24:39;;;;;;;1.52;0.57;;;27.30;52.20;;;;;;4048700;29;20128;-58
2022/11/07 07:27:02;;;;;;;1.13;0.30;;;27.30;52.30;;;;;;4048778;29;20440;-57
2022/11/07 07:29:24;;;;;;;1.67;0.55;;;27.20;52.40;;;;;;4047513;29;20068;-57
2022/11/07 07:31:47;;;;;;;1.33;0.70;;;27.20;52.50;;;;;;4052178;29;20050;-58
2022/11/07 07:34:10;;;;;;;2.20;0.45;;;27.10;52.60;;;;;;4048682;29;20052;-57
2022/11/07 07:36:32;;;;;;;1.90;0.50;;;27.10;52.60;;;;;;4053609;29;20051;-59
2022/11/07 07:38:55;;;;;;;0.57;0.30;;;27.00;52.70;;;;;;4052118;29;20135;-58
2022/11/07 07:41:18;;;;;;;0.65;0.30;;;27.00;52.80;;;;;;4051624;29;20076;-57
2022/11/07 07:43:41;;;;;;;1.02;0.32;;;26.90;52.80;;;;;;4048274;29;20413;-57
2022/11/07 07:46:06;;;;;;;0.57;0.40;;;26.90;52.90;;;;;;4050299;29;20048;-57
2022/11/07 07:48:30;;;;;;;0.47;0.30;;;26.90;53.00;;;;;;4053579;29;20044;-57
2022/11/07 07:50:52;;;;;;;1.50;0.40;;;26.80;53.00;;;;;;4049094;29;20048;-57
2022/11/07 07:53:15;;;;;;;1.15;0.40;;;26.80;53.10;;;;;;4053905;29;20091;-56
2022/11/07 07:55:38;;;;;;;1.77;0.50;;;26.70;53.10;;;;;;4062788;29;20073;-57
2022/11/07 07:58:00;;;;;;;2.40;0.45;;;26.70;53.10;;;;;;4064766;29;20050;-58
2022/11/07 08:00:23;;;;;;;1.67;0.68;;;26.70;53.20;;;;;;4063917;29;20126;-57
2022/11/07 08:02:45;;;;;;;0.45;0.45;;;26.70;53.20;;;;;;4063657;29;20460;-57
2022/11/07 08:05:08;;;;;;;1.15;0.55;;;26.60;53.20;;;;;;4046869;29;20067;-56
2022/11/07 08:07:31;;;;;;;2.23;0.50;;;26.60;53.20;;;;;;4042636;29;20041;-58
2022/11/07 08:09:53;;;;;;;0.60;0.35;;;26.60;53.20;;;;;;4050735;29;20715;-55
2022/11/07 08:12:16;;;;;;;2.00;0.57;;;26.50;53.20;;;;;;4047735;29;20111;-57
2022/11/07 08:14:38;;;;;;;0.60;0.40;;;26.50;53.20;;;;;;4052909;29;20091;-56
2022/11/07 08:17:01;;;;;;;1.30;0.50;;;26.50;54.00;;;;;;4052967;29;20598;-57
2022/11/07 08:19:25;;;;;;;1.15;0.40;;;26.40;53.30;;;;;;4049663;29;20505;-57
2022/11/07 08:21:47;;;;;;;0.57;0.50;;;26.40;53.40;;;;;;4049940;29;20040;-57
2022/11/07 08:24:10;;;;;;;0.90;0.45;;;26.40;53.30;;;;;;4052644;29;20498;-57
2022/11/07 08:26:33;;;;;;;1.10;0.57;;;26.30;53.40;;;;;;4053352;29;20103;-58
2022/11/07 08:28:55;;;;;;;1.57;0.70;;;26.30;53.40;;;;;;4052575;29;20063;-57
2022/11/07 08:31:18;;;;;;;1.95;0.88;;;26.20;53.50;;;;;;4050188;29;20040;-58
2022/11/07 08:33:40;;;;;;;2.03;0.77;;;26.20;53.60;;;;;;4049186;29;20044;-57
2022/11/07 08:36:05;;;;;;;1.05;0.60;;;26.20;53.80;;;;;;4051217;29;20091;-57
2022/11/07 08:38:29;;;;;;;1.10;0.70;;;26.20;53.90;;;;;;4053203;29;20044;-58
2022/11/07 08:40:52;;;;;;;1.33;0.70;;;26.20;53.90;;;;;;4046796;29;20490;-58
2022/11/07 08:43:16;;;;;;;1.33;0.70;;;26.20;53.90;;;;;;4047785;29;20071;-57
2022/11/07 08:45:39;;;;;;;1.60;0.70;;;26.10;53.90;;;;;;4042122;29;20119;-57
2022/11/07 08:48:02;;;;;;;1.30;0.60;;;26.10;53.90;;;;;;4048835;29;20059;-57
2022/11/07 08:50:25;;;;;;;0.90;0.70;;;26.10;54.00;;;;;;4048844;29;20527;-57
2022/11/07 08:52:48;;;;;;;2.05;1.00;;;26.10;54.00;;;;;;4048944;29;20044;-57
2022/11/07 08:55:11;;;;;;;1.52;0.80;;;26.00;54.00;;;;;;4045558;29;20075;-57
2022/11/07 08:57:33;;;;;;;1.98;1.02;;;26.00;54.00;;;;;;4046861;29;20040;-56
2022/11/07 08:59:56;;;;;;;2.28;0.80;;;26.00;54.10;;;;;;4049675;29;20052;-57
2022/11/07 09:02:18;;;;;;;1.48;0.57;;;26.00;54.10;;;;;;4045985;29;20541;-57
2022/11/07 09:04:41;;;;;;;2.47;0.80;;;26.00;54.20;;;;;;4047999;29;20481;-57
2022/11/07 09:07:04;;;;;;;1.02;0.75;;;25.90;54.20;;;;;;4050524;29;20040;-57
2022/11/07 09:09:27;;;;;;;1.40;0.80;;;25.90;54.30;;;;;;4050562;29;20052;-57
2022/11/07 09:11:49;;;;;;;3.45;0.90;;;25.90;54.30;;;;;;4050287;29;20485;-57
2022/11/07 09:14:12;;;;;;;0.60;0.57;;;25.80;54.20;;;;;;4048604;29;20055;-57
2022/11/07 09:16:35;;;;;;;1.80;0.93;;;25.80;54.30;;;;;;4049645;29;20147;-57
2022/11/07 09:18:57;;;;;;;0.82;0.52;;;25.80;54.30;;;;;;4050329;29;20040;-57
2022/11/07 09:21:20;;;;;;;1.10;0.63;;;25.80;54.30;;;;;;4051206;29;20123;-57
2022/11/07 09:23:42;;;;;;;0.95;0.80;;;25.70;54.30;;;;;;4050460;29;20055;-57
2022/11/07 09:26:06;;;;;;;0.63;0.45;;;25.80;54.40;;;;;;4053888;29;20044;-57
2022/11/07 09:28:29;;;;;;;1.40;0.63;;;25.70;54.30;;;;;;4052316;29;20127;-57
2022/11/07 09:30:55;;;;;;;1.20;0.77;;;25.70;54.40;;;;;;4052954;29;20126;-57
2022/11/07 09:33:18;;;;;;;1.38;0.60;;;25.70;54.40;;;;;;4052719;29;20559;-57
2022/11/07 09:35:41;;;;;;;1.15;0.77;;;25.70;54.40;;;;;;4051283;29;20474;-57
2022/11/07 09:38:03;;;;;;;3.00;0.93;;;25.70;54.40;;;;;;4050345;29;20048;-57
2022/11/07 09:40:39;;;;;;;1.85;0.82;;;25.70;54.40;;;;;;4053560;29;20388;-57
2022/11/07 09:43:38;;;;;;;0.95;0.52;;;25.60;54.40;;;;;;4051098;29;20503;-57
2022/11/07 09:46:24;;;;;;;1.02;0.82;;;25.60;54.40;;;;;;4048510;29;20559;-57
2022/11/07 09:49:09;;;;;;;0.95;0.50;;;25.60;54.40;;;;;;4050982;29;20052;-56
2022/11/07 09:51:38;;;;;;;1.17;0.80;;;25.60;54.50;;;;;;4050781;29;20180;-58
2022/11/07 09:54:10;;;;;;;2.35;0.70;;;25.60;55.00;;;;;;4043042;29;20041;-59
2022/11/07 09:56:34;;;;;;;6.25;1.00;;;25.60;55.00;;;;;;4048690;29;20127;-49
2022/11/07 09:59:00;;;;;;;13.48;1.30;;;25.60;55.60;;;;;;4047487;29;20416;-49
2022/11/07 10:01:24;;;;;;;2.70;0.93;;;25.60;56.00;;;;;;4048873;29;20043;-50
2022/11/07 10:03:47;;;;;;;2.13;0.65;;;25.70;56.30;;;;;;4043685;29;20037;-53
2022/11/07 10:06:35;;;;;;;1.60;0.82;;;25.70;56.30;;;;;;4043165;29;20957;-51
2022/11/07 10:09:38;;;;;;;4.43;0.75;;;25.80;56.50;;;;;;4044184;29;20059;-50
2022/11/07 10:12:38;;;;;;;4.07;1.02;;;25.80;56.50;;;;;;4023931;29;20053;-46
2022/11/07 10:15:13;;;;;;;1.33;0.70;;;25.80;56.50;;;;;;4041957;29;20231;-48
2022/11/07 10:17:53;;;;;;;5.95;0.90;;;25.80;56.50;;;;;;4040557;29;20055;-49
2022/11/07 10:20:24;;;;;;;0.40;0.30;;;25.90;56.60;;;;;;4046020;29;20040;-51
2022/11/07 10:23:29;;;;;;;1.58;0.75;;;25.90;56.60;;;;;;4045755;29;20044;-50
2022/11/07 10:26:10;;;;;;;1.98;0.80;;;25.90;56.60;;;;;;4045662;29;20036;-50
2022/11/07 10:28:43;;;;;;;1.85;0.47;;;25.80;56.60;;;;;;4044428;29;20571;-49
2022/11/07 10:31:10;;;;;;;2.88;0.60;;;25.90;56.70;;;;;;4040473;29;20076;-45
2022/11/07 10:33:50;;;;;;;0.93;0.50;;;25.80;56.60;;;;;;4041808;29;20032;-46
2022/11/07 10:36:24;;;;;;;4.38;0.43;;;25.90;56.70;;;;;;4045906;29;20143;-46
2022/11/07 10:38:46;;;;;;;2.08;0.30;;;25.90;56.80;;;;;;4042950;29;20051;-53
2022/11/07 10:41:20;;;;;;;1.10;0.43;;;25.90;56.70;;;;;;4041598;29;20043;-47
2022/11/07 10:43:48;;;;;;;0.93;0.60;;;25.90;56.70;;;;;;4043371;29;20500;-49
2022/11/07 10:46:20;;;;;;;3.33;0.60;;;25.90;56.60;;;;;;4041954;29;20032;-51
2022/11/07 10:48:59;;;;;;;1.80;0.55;;;25.90;56.70;;;;;;4042348;29;20107;-46
2022/11/07 10:51:36;;;;;;;4.57;0.60;;;25.90;56.70;;;;;;4044978;29;20084;-46
2022/11/07 10:53:59;;;;;;;0.95;0.50;;;25.90;56.60;;;;;;4044876;29;20040;-50
2022/11/07 10:56:22;;;;;;;0.55;0.30;;;25.90;56.60;;;;;;4048884;29;20083;-46
2022/11/07 10:58:45;;;;;;;2.45;0.47;;;25.90;56.60;;;;;;4048144;29;20060;-46
2022/11/07 11:01:10;;;;;;;1.83;0.38;;;25.90;56.70;;;;;;4047802;29;20032;-53
2022/11/07 11:03:39;;;;;;;0.90;0.40;;;25.90;56.70;;;;;;4048012;29;20480;-48
2022/11/07 11:06:19;;;;;;;1.08;0.40;;;25.90;56.60;;;;;;4042956;29;20501;-53
2022/11/07 11:08:42;;;;;;;5.55;0.60;;;25.90;56.60;;;;;;4051131;29;20117;-49
2022/11/07 11:11:29;;;;;;;1.38;0.52;;;25.90;56.60;;;;;;4052499;29;20081;-50
2022/11/07 11:14:12;;;;;;;2.70;0.50;;;25.90;56.50;;;;;;4047770;29;20139;-46
2022/11/07 11:16:37;;;;;;;4.45;0.85;;;25.90;56.50;;;;;;4048618;29;20780;-47
2022/11/07 11:19:01;;;;;;;1.95;0.50;;;25.90;56.50;;;;;;4049182;29;20054;-46
2022/11/07 11:21:24;;;;;;;1.15;0.50;;;25.90;56.50;;;;;;4046035;29;20036;-45
2022/11/07 11:23:48;;;;;;;9.10;1.00;;;25.80;56.30;;;;;;4049541;29;20040;-52
2022/11/07 11:26:13;;;;;;;2.05;0.43;;;25.90;56.40;;;;;;4053094;29;20048;-45
2022/11/07 11:28:46;;;;;;;1.80;0.85;;;25.90;56.50;;;;;;4050491;29;20576;-49
2022/11/07 11:31:18;;;;;;;1.27;0.55;;;25.90;55.90;;;;;;4045629;29;20119;-44
2022/11/07 11:33:58;;;;;;;5.43;0.82;;;25.90;56.30;;;;;;4041925;29;20036;-45
2022/11/07 11:36:26;;;;;;;3.22;0.60;;;25.80;56.40;;;;;;4043759;29;20492;-44
2022/11/07 11:38:53;;;;;;;1.13;0.45;;;25.80;56.40;;;;;;4046591;29;20033;-45
2022/11/07 11:41:34;;;;;;;2.35;0.50;;;25.90;56.60;;;;;;4042936;29;20032;-47
2022/11/07 11:44:37;;;;;;;5.18;0.90;;;25.80;56.60;;;;;;4048813;29;20052;-43
2022/11/07 11:47:10;;;;;;;5.28;0.85;;;25.80;56.30;;;;;;4045805;29;20353;-48
2022/11/07 11:49:38;;;;;;;2.35;0.90;;;25.80;56.30;;;;;;4046994;29;20044;-43
2022/11/07 11:52:12;;;;;;;5.20;0.50;;;25.80;56.30;;;;;;4042752;29;20040;-45
2022/11/07 11:54:35;;;;;;;3.20;0.60;;;25.80;56.30;;;;;;4046630;29;20055;-45
2022/11/07 11:57:17;;;;;;;4.97;0.60;;;25.80;56.60;;;;;;4042965;29;20044;-46
2022/11/07 11:59:42;;;;;;;1.98;0.30;;;25.70;56.40;;;;;;4043305;29;20405;-44
2022/11/07 12:02:26;;;;;;;1.25;0.40;;;25.70;56.50;;;;;;4045239;29;20087;-45
2022/11/07 12:05:07;;;;;;;3.60;0.82;;;25.70;56.40;;;;;;4043895;29;20510;-45
2022/11/07 12:08:03;;;;;;;2.65;0.45;;;25.70;56.50;;;;;;4045899;29;20127;-46
2022/11/07 12:10:40;;;;;;;5.68;1.00;;;25.70;56.50;;;;;;4051501;29;20054;-44
2022/11/07 12:13:29;;;;;;;0.70;0.40;;;25.70;56.60;;;;;;4048973;29;20052;-43
2022/11/07 12:16:14;;;;;;;15.95;1.80;;;25.70;56.60;;;;;;4052717;29;20038;-54
2022/11/07 12:18:52;;;;;;;33.10;2.78;;;25.70;56.80;;;;;;4046354;29;20044;-55
2022/11/07 12:21:33;;;;;;;12.50;1.65;;;25.70;57.00;;;;;;4051372;29;20047;-49
2022/11/07 12:23:58;;;;;;;11.07;1.38;;;25.70;57.00;;;;;;4051387;29;20028;-52
2022/11/07 12:26:48;;;;;;;10.68;1.35;;;25.60;56.90;;;;;;4056042;29;20036;-52
2022/11/07 12:29:42;;;;;;;2.92;0.88;;;25.60;56.90;;;;;;4051016;29;20397;-51
2022/11/07 12:32:19;;;;;;;2.88;0.90;;;25.60;57.00;;;;;;4051712;29;20040;-47
2022/11/07 12:35:07;;;;;;;5.13;1.25;;;25.50;57.00;;;;;;4045802;29;20028;-50
2022/11/07 12:37:51;;;;;;;6.32;0.80;;;25.50;57.00;;;;;;4049493;29;20044;-48
2022/11/07 12:40:46;;;;;;;5.70;1.17;;;25.50;57.10;;;;;;4047357;29;20040;-50
2022/11/07 12:43:35;;;;;;;2.17;0.63;;;25.50;57.00;;;;;;4036299;29;20040;-53
2022/11/07 12:45:58;;;;;;;3.38;0.85;;;25.50;57.00;;;;;;4042210;29;20484;-47
2022/11/07 12:48:29;;;;;;;3.67;0.60;;;25.50;57.00;;;;;;4043216;29;20044;-52
2022/11/07 12:50:54;;;;;;;2.70;0.70;;;25.50;57.00;;;;;;4046099;29;20052;-48
2022/11/07 12:53:52;;;;;;;1.60;0.45;;;25.50;57.00;;;;;;4044252;29;20112;-48